sensor_id;sensor_type;location;lat;lon;timestamp;temperature;humidity
18741;DHT22;9499;52.472;13.448;2023-08-08T00:02:06;15.10;1.00
18741;DHT22;9499;52.472;13.448;2023-08-08T00:04:33;15.00;1.00
18741;DHT22;9499;52.472;13.448;2023-08-08T00:07:00;15.00;1.00
18741;DHT22;9499;52.472;13.448;2023-08-08T00:09:26;15.00;17.40
18741;DHT22;9499;52.472;13.448;2023-08-08T00:11:54;15.00;99.90
18741;DHT22;9499;52.472;13.448;2023-08-08T00:14:22;14.90;99.90
18741;DHT22;9499;52.472;13.448;2023-08-08T00:16:49;14.90;99.90
18741;DHT22;9499;52.472;13.448;2023-08-08T00:19:15;14.80;99.90
18741;DHT22;9499;52.472;13.448;2023-08-08T00:21:42;14.80;99.90
18741;DHT22;9499;52.472;13.448;2023-08-08T00:24:08;14.80;99.90
18741;DHT22;9499;52.472;13.448;2023-08-08T00:26:35;14.80;99.90
18741;DHT22;9499;52.472;13.448;2023-08-08T00:29:03;14.70;99.90
18741;DHT22;9499;52.472;13.448;2023-08-08T00:31:29;14.70;99.90
18741;DHT22;9499;52.472;13.448;2023-08-08T00:33:56;14.70;99.90
18741;DHT22;9499;52.472;13.448;2023-08-08T00:36:22;14.70;99.90
18741;DHT22;9499;52.472;13.448;2023-08-08T00:38:49;14.60;99.90
18741;DHT22;9499;52.472;13.448;2023-08-08T00:41:15;14.60;99.90
18741;DHT22;9499;52.472;13.448;2023-08-08T00:43:42;14.60;99.90
18741;DHT22;9499;52.472;13.448;2023-08-08T00:46:10;14.60;99.90
18741;DHT22;9499;52.472;13.448;2023-08-08T00:48:37;14.50;99.90
18741;DHT22;9499;52.472;13.448;2023-08-08T00:51:03;14.50;99.90
18741;DHT22;9499;52.472;13.448;2023-08-08T00:53:30;14.50;99.90
18741;DHT22;9499;52.472;13.448;2023-08-08T00:55:58;14.50;99.90
18741;DHT22;9499;52.472;13.448;2023-08-08T00:58:25;14.40;99.90
18741;DHT22;9499;52.472;13.448;2023-08-08T01:00:52;14.40;99.90
18741;DHT22;9499;52.472;13.448;2023-08-08T01:03:21;14.40;99.90
18741;DHT22;9499;52.472;13.448;2023-08-08T01:05:51;14.40;99.90
18741;DHT22;9499;52.472;13.448;2023-08-08T01:08:23;14.40;99.90
18741;DHT22;9499;52.472;13.448;2023-08-08T01:10:53;14.40;99.90
18741;DHT22;9499;52.472;13.448;2023-08-08T01:13:21;14.40;99.90
18741;DHT22;9499;52.472;13.448;2023-08-08T01:15:50;14.40;99.90
18741;DHT22;9499;52.472;13.448;2023-08-08T01:18:18;14.30;99.90
18741;DHT22;9499;52.472;13.448;2023-08-08T01:20:46;14.30;99.90
18741;DHT22;9499;52.472;13.448;2023-08-08T01:23:18;14.30;99.90
18741;DHT22;9499;52.472;13.448;2023-08-08T01:25:48;14.30;99.90
18741;DHT22;9499;52.472;13.448;2023-08-08T01:28:15;14.30;99.90
18741;DHT22;9499;52.472;13.448;2023-08-08T01:30:43;14.20;99.90
18741;DHT22;9499;52.472;13.448;2023-08-08T01:33:09;14.20;99.90
18741;DHT22;9499;52.472;13.448;2023-08-08T01:35:38;14.20;99.90
18741;DHT22;9499;52.472;13.448;2023-08-08T01:38:10;14.20;10.50
18741;DHT22;9499;52.472;13.448;2023-08-08T01:40:38;14.20;4.70
18741;DHT22;9499;52.472;13.448;2023-08-08T01:43:08;14.20;37.50
18741;DHT22;9499;52.472;13.448;2023-08-08T01:45:35;14.20;1.00
18741;DHT22;9499;52.472;13.448;2023-08-08T01:48:06;14.10;1.00
18741;DHT22;9499;52.472;13.448;2023-08-08T01:50:33;14.10;18.20
18741;DHT22;9499;52.472;13.448;2023-08-08T01:52:59;14.10;1.00
18741;DHT22;9499;52.472;13.448;2023-08-08T01:55:26;14.10;1.00
18741;DHT22;9499;52.472;13.448;2023-08-08T01:57:52;14.10;1.00
18741;DHT22;9499;52.472;13.448;2023-08-08T02:00:20;14.10;1.00
18741;DHT22;9499;52.472;13.448;2023-08-08T02:02:47;14.10;1.00
18741;DHT22;9499;52.472;13.448;2023-08-08T02:05:13;14.10;1.00
18741;DHT22;9499;52.472;13.448;2023-08-08T02:07:40;14.10;1.00
18741;DHT22;9499;52.472;13.448;2023-08-08T02:10:07;14.00;1.00
18741;DHT22;9499;52.472;13.448;2023-08-08T02:12:34;14.10;99.90
18741;DHT22;9499;52.472;13.448;2023-08-08T02:15:00;14.10;1.00
18741;DHT22;9499;52.472;13.448;2023-08-08T02:17:29;14.10;1.00
18741;DHT22;9499;52.472;13.448;2023-08-08T02:19:55;14.10;1.00
18741;DHT22;9499;52.472;13.448;2023-08-08T02:22:22;14.10;99.90
18741;DHT22;9499;52.472;13.448;2023-08-08T02:24:48;14.10;1.00
18741;DHT22;9499;52.472;13.448;2023-08-08T02:27:15;14.10;1.00
18741;DHT22;9499;52.472;13.448;2023-08-08T02:29:41;14.10;1.00
18741;DHT22;9499;52.472;13.448;2023-08-08T02:32:08;14.10;1.00
18741;DHT22;9499;52.472;13.448;2023-08-08T02:34:36;14.00;1.00
18741;DHT22;9499;52.472;13.448;2023-08-08T02:37:03;14.00;1.00
18741;DHT22;9499;52.472;13.448;2023-08-08T02:39:30;13.90;1.00
18741;DHT22;9499;52.472;13.448;2023-08-08T02:41:56;13.90;80.90
18741;DHT22;9499;52.472;13.448;2023-08-08T02:44:23;13.90;99.90
18741;DHT22;9499;52.472;13.448;2023-08-08T02:46:49;13.90;99.90
18741;DHT22;9499;52.472;13.448;2023-08-08T02:49:16;13.90;99.90
18741;DHT22;9499;52.472;13.448;2023-08-08T02:51:44;14.00;99.90
18741;DHT22;9499;52.472;13.448;2023-08-08T02:54:10;13.90;99.90
18741;DHT22;9499;52.472;13.448;2023-08-08T02:56:37;13.90;99.90
18741;DHT22;9499;52.472;13.448;2023-08-08T02:59:03;13.90;99.90
18741;DHT22;9499;52.472;13.448;2023-08-08T03:01:30;13.90;99.90
18741;DHT22;9499;52.472;13.448;2023-08-08T03:03:56;13.90;99.90
18741;DHT22;9499;52.472;13.448;2023-08-08T03:06:23;13.90;99.90
18741;DHT22;9499;52.472;13.448;2023-08-08T03:08:51;13.90;1.00
18741;DHT22;9499;52.472;13.448;2023-08-08T03:11:17;13.80;1.00
18741;DHT22;9499;52.472;13.448;2023-08-08T03:13:44;13.80;1.00
18741;DHT22;9499;52.472;13.448;2023-08-08T03:16:10;13.80;1.00
18741;DHT22;9499;52.472;13.448;2023-08-08T03:18:37;13.80;1.00
18741;DHT22;9499;52.472;13.448;2023-08-08T03:21:03;13.80;1.00
18741;DHT22;9499;52.472;13.448;2023-08-08T03:23:30;13.80;1.00
18741;DHT22;9499;52.472;13.448;2023-08-08T03:25:58;13.80;1.00
18741;DHT22;9499;52.472;13.448;2023-08-08T03:28:25;13.80;1.00
18741;DHT22;9499;52.472;13.448;2023-08-08T03:30:51;13.80;1.00
18741;DHT22;9499;52.472;13.448;2023-08-08T03:33:18;13.80;1.00
18741;DHT22;9499;52.472;13.448;2023-08-08T03:35:44;13.80;1.00
18741;DHT22;9499;52.472;13.448;2023-08-08T03:38:11;13.80;1.00
18741;DHT22;9499;52.472;13.448;2023-08-08T03:40:37;13.80;1.00
18741;DHT22;9499;52.472;13.448;2023-08-08T03:43:05;13.70;1.00
18741;DHT22;9499;52.472;13.448;2023-08-08T03:45:32;13.80;1.00
18741;DHT22;9499;52.472;13.448;2023-08-08T03:47:58;13.80;1.00
18741;DHT22;9499;52.472;13.448;2023-08-08T03:50:25;13.80;1.00
18741;DHT22;9499;52.472;13.448;2023-08-08T03:52:51;13.70;1.00
18741;DHT22;9499;52.472;13.448;2023-08-08T03:55:18;13.80;1.00
18741;DHT22;9499;52.472;13.448;2023-08-08T03:57:45;13.80;1.00
18741;DHT22;9499;52.472;13.448;2023-08-08T04:00:13;13.80;1.00
18741;DHT22;9499;52.472;13.448;2023-08-08T04:02:40;13.80;1.00
18741;DHT22;9499;52.472;13.448;2023-08-08T04:05:07;13.80;1.00
18741;DHT22;9499;52.472;13.448;2023-08-08T04:07:34;13.80;1.00
18741;DHT22;9499;52.472;13.448;2023-08-08T04:10:01;13.80;1.00
18741;DHT22;9499;52.472;13.448;2023-08-08T04:12:27;13.80;1.00
18741;DHT22;9499;52.472;13.448;2023-08-08T04:14:54;13.80;1.00
18741;DHT22;9499;52.472;13.448;2023-08-08T04:17:22;13.90;1.00
18741;DHT22;9499;52.472;13.448;2023-08-08T04:19:48;13.90;1.00
18741;DHT22;9499;52.472;13.448;2023-08-08T04:22:16;13.90;1.00
18741;DHT22;9499;52.472;13.448;2023-08-08T04:24:43;13.90;1.00
18741;DHT22;9499;52.472;13.448;2023-08-08T04:27:10;13.90;1.00
18741;DHT22;9499;52.472;13.448;2023-08-08T04:29:36;14.00;1.00
18741;DHT22;9499;52.472;13.448;2023-08-08T04:32:03;13.90;1.00
18741;DHT22;9499;52.472;13.448;2023-08-08T04:34:31;14.00;1.00
18741;DHT22;9499;52.472;13.448;2023-08-08T04:36:58;14.00;1.00
18741;DHT22;9499;52.472;13.448;2023-08-08T04:39:24;14.10;1.00
18741;DHT22;9499;52.472;13.448;2023-08-08T04:41:51;14.10;1.00
18741;DHT22;9499;52.472;13.448;2023-08-08T04:44:17;14.10;1.00
18741;DHT22;9499;52.472;13.448;2023-08-08T04:46:44;14.10;1.00
18741;DHT22;9499;52.472;13.448;2023-08-08T04:49:10;14.10;1.00
18741;DHT22;9499;52.472;13.448;2023-08-08T04:51:38;14.10;1.00
18741;DHT22;9499;52.472;13.448;2023-08-08T04:54:05;14.10;1.00
18741;DHT22;9499;52.472;13.448;2023-08-08T04:56:31;14.10;1.00
18741;DHT22;9499;52.472;13.448;2023-08-08T04:58:58;14.20;1.00
18741;DHT22;9499;52.472;13.448;2023-08-08T05:01:24;14.10;1.00
18741;DHT22;9499;52.472;13.448;2023-08-08T05:03:50;14.20;1.00
18741;DHT22;9499;52.472;13.448;2023-08-08T05:06:17;14.20;1.00
18741;DHT22;9499;52.472;13.448;2023-08-08T05:08:45;14.20;1.00
18741;DHT22;9499;52.472;13.448;2023-08-08T05:11:11;14.30;1.00
18741;DHT22;9499;52.472;13.448;2023-08-08T05:13:38;14.30;1.00
18741;DHT22;9499;52.472;13.448;2023-08-08T05:16:04;14.30;1.00
18741;DHT22;9499;52.472;13.448;2023-08-08T05:18:31;14.30;1.00
18741;DHT22;9499;52.472;13.448;2023-08-08T05:20:58;14.30;1.00
18741;DHT22;9499;52.472;13.448;2023-08-08T05:23:24;14.30;1.00
18741;DHT22;9499;52.472;13.448;2023-08-08T05:25:52;14.30;1.00
18741;DHT22;9499;52.472;13.448;2023-08-08T05:28:18;14.40;1.00
18741;DHT22;9499;52.472;13.448;2023-08-08T05:30:46;14.40;1.00
18741;DHT22;9499;52.472;13.448;2023-08-08T05:33:13;14.40;1.00
18741;DHT22;9499;52.472;13.448;2023-08-08T05:35:39;14.40;1.00
18741;DHT22;9499;52.472;13.448;2023-08-08T05:38:07;14.40;1.00
18741;DHT22;9499;52.472;13.448;2023-08-08T05:40:34;14.50;1.00
18741;DHT22;9499;52.472;13.448;2023-08-08T05:43:02;14.50;1.00
18741;DHT22;9499;52.472;13.448;2023-08-08T05:45:29;14.60;1.00
18741;DHT22;9499;52.472;13.448;2023-08-08T05:47:57;14.70;1.00
18741;DHT22;9499;52.472;13.448;2023-08-08T05:50:25;14.80;1.00
18741;DHT22;9499;52.472;13.448;2023-08-08T05:52:51;14.90;1.00
18741;DHT22;9499;52.472;13.448;2023-08-08T05:55:18;14.90;1.00
18741;DHT22;9499;52.472;13.448;2023-08-08T05:57:44;15.00;1.00
18741;DHT22;9499;52.472;13.448;2023-08-08T06:00:13;15.00;1.00
18741;DHT22;9499;52.472;13.448;2023-08-08T06:02:39;15.00;1.00
18741;DHT22;9499;52.472;13.448;2023-08-08T06:05:07;15.10;1.00
18741;DHT22;9499;52.472;13.448;2023-08-08T06:07:34;15.10;1.00
18741;DHT22;9499;52.472;13.448;2023-08-08T06:10:00;15.10;1.00
18741;DHT22;9499;52.472;13.448;2023-08-08T06:12:27;15.20;1.00
18741;DHT22;9499;52.472;13.448;2023-08-08T06:14:54;15.20;1.00
18741;DHT22;9499;52.472;13.448;2023-08-08T06:17:22;15.20;1.00
18741;DHT22;9499;52.472;13.448;2023-08-08T06:19:49;15.20;1.00
18741;DHT22;9499;52.472;13.448;2023-08-08T06:22:15;15.20;1.00
18741;DHT22;9499;52.472;13.448;2023-08-08T06:24:42;15.30;1.00
18741;DHT22;9499;52.472;13.448;2023-08-08T06:27:08;15.30;1.00
18741;DHT22;9499;52.472;13.448;2023-08-08T06:29:35;15.30;1.00
18741;DHT22;9499;52.472;13.448;2023-08-08T06:32:02;15.30;1.00
18741;DHT22;9499;52.472;13.448;2023-08-08T06:34:30;15.30;1.00
18741;DHT22;9499;52.472;13.448;2023-08-08T06:36:56;15.40;1.00
18741;DHT22;9499;52.472;13.448;2023-08-08T06:39:23;15.40;1.00
18741;DHT22;9499;52.472;13.448;2023-08-08T06:41:50;15.50;1.00
18741;DHT22;9499;52.472;13.448;2023-08-08T06:44:16;15.50;1.00
18741;DHT22;9499;52.472;13.448;2023-08-08T06:46:43;15.40;1.00
18741;DHT22;9499;52.472;13.448;2023-08-08T06:49:09;15.50;1.00
18741;DHT22;9499;52.472;13.448;2023-08-08T06:51:37;15.50;1.00
18741;DHT22;9499;52.472;13.448;2023-08-08T06:54:04;15.40;1.00
18741;DHT22;9499;52.472;13.448;2023-08-08T06:56:31;15.50;1.00
18741;DHT22;9499;52.472;13.448;2023-08-08T06:58:57;15.50;1.00
18741;DHT22;9499;52.472;13.448;2023-08-08T07:01:24;15.50;1.00
18741;DHT22;9499;52.472;13.448;2023-08-08T07:03:50;15.50;1.00
18741;DHT22;9499;52.472;13.448;2023-08-08T07:06:17;15.50;1.00
18741;DHT22;9499;52.472;13.448;2023-08-08T07:08:45;15.50;1.00
18741;DHT22;9499;52.472;13.448;2023-08-08T07:11:12;15.50;1.00
18741;DHT22;9499;52.472;13.448;2023-08-08T07:13:38;15.50;1.00
18741;DHT22;9499;52.472;13.448;2023-08-08T07:16:05;15.60;1.00
18741;DHT22;9499;52.472;13.448;2023-08-08T07:18:31;15.60;1.00
18741;DHT22;9499;52.472;13.448;2023-08-08T07:20:58;15.70;1.00
18741;DHT22;9499;52.472;13.448;2023-08-08T07:23:24;15.80;99.90
18741;DHT22;9499;52.472;13.448;2023-08-08T07:25:52;15.90;99.90
18741;DHT22;9499;52.472;13.448;2023-08-08T07:28:18;15.90;99.90
18741;DHT22;9499;52.472;13.448;2023-08-08T07:30:45;15.90;99.90
18741;DHT22;9499;52.472;13.448;2023-08-08T07:33:11;16.00;99.90
18741;DHT22;9499;52.472;13.448;2023-08-08T07:35:39;16.10;99.90
18741;DHT22;9499;52.472;13.448;2023-08-08T07:38:05;16.10;99.90
18741;DHT22;9499;52.472;13.448;2023-08-08T07:40:33;16.20;99.90
18741;DHT22;9499;52.472;13.448;2023-08-08T07:43:01;16.20;99.90
18741;DHT22;9499;52.472;13.448;2023-08-08T07:45:27;16.30;12.20
18741;DHT22;9499;52.472;13.448;2023-08-08T07:47:54;16.30;1.00
18741;DHT22;9499;52.472;13.448;2023-08-08T07:50:20;16.30;1.00
18741;DHT22;9499;52.472;13.448;2023-08-08T07:52:47;16.30;1.00
18741;DHT22;9499;52.472;13.448;2023-08-08T07:55:14;16.30;1.00
18741;DHT22;9499;52.472;13.448;2023-08-08T07:57:40;16.40;1.00
18741;DHT22;9499;52.472;13.448;2023-08-08T08:00:09;16.40;1.00
18741;DHT22;9499;52.472;13.448;2023-08-08T08:02:37;16.30;1.00
18741;DHT22;9499;52.472;13.448;2023-08-08T08:05:04;16.40;1.00
18741;DHT22;9499;52.472;13.448;2023-08-08T08:07:33;16.30;1.00
18741;DHT22;9499;52.472;13.448;2023-08-08T08:10:00;16.40;1.00
18741;DHT22;9499;52.472;13.448;2023-08-08T08:12:26;16.40;1.00
18741;DHT22;9499;52.472;13.448;2023-08-08T08:14:53;16.50;1.00
18741;DHT22;9499;52.472;13.448;2023-08-08T08:17:20;16.50;1.00
18741;DHT22;9499;52.472;13.448;2023-08-08T08:19:47;16.50;1.00
18741;DHT22;9499;52.472;13.448;2023-08-08T08:22:13;16.60;1.00
18741;DHT22;9499;52.472;13.448;2023-08-08T08:24:40;16.70;99.90
18741;DHT22;9499;52.472;13.448;2023-08-08T08:27:06;16.70;99.90
18741;DHT22;9499;52.472;13.448;2023-08-08T08:29:33;16.80;99.90
18741;DHT22;9499;52.472;13.448;2023-08-08T08:31:59;16.90;1.00
18741;DHT22;9499;52.472;13.448;2023-08-08T08:34:27;16.90;1.00
18741;DHT22;9499;52.472;13.448;2023-08-08T08:36:54;16.90;1.00
18741;DHT22;9499;52.472;13.448;2023-08-08T08:39:20;17.00;99.90
18741;DHT22;9499;52.472;13.448;2023-08-08T08:41:49;17.20;99.90
18741;DHT22;9499;52.472;13.448;2023-08-08T08:44:16;17.20;1.00
18741;DHT22;9499;52.472;13.448;2023-08-08T08:46:45;17.20;99.90
18741;DHT22;9499;52.472;13.448;2023-08-08T08:49:14;17.30;10.20
18741;DHT22;9499;52.472;13.448;2023-08-08T08:51:42;17.30;1.00
18741;DHT22;9499;52.472;13.448;2023-08-08T08:54:09;17.30;99.90
18741;DHT22;9499;52.472;13.448;2023-08-08T08:56:36;17.30;1.00
18741;DHT22;9499;52.472;13.448;2023-08-08T08:59:03;17.30;1.00
18741;DHT22;9499;52.472;13.448;2023-08-08T09:01:29;17.30;1.00
18741;DHT22;9499;52.472;13.448;2023-08-08T09:03:57;17.20;47.60
18741;DHT22;9499;52.472;13.448;2023-08-08T09:06:24;17.20;1.00
18741;DHT22;9499;52.472;13.448;2023-08-08T09:08:53;17.40;1.00
18741;DHT22;9499;52.472;13.448;2023-08-08T09:11:19;17.50;99.90
18741;DHT22;9499;52.472;13.448;2023-08-08T09:13:46;17.60;1.00
18741;DHT22;9499;52.472;13.448;2023-08-08T09:16:13;17.60;99.90
18741;DHT22;9499;52.472;13.448;2023-08-08T09:18:39;17.70;4.70
18741;DHT22;9499;52.472;13.448;2023-08-08T09:21:07;17.70;1.00
18741;DHT22;9499;52.472;13.448;2023-08-08T09:23:37;17.80;1.00
18741;DHT22;9499;52.472;13.448;2023-08-08T09:26:05;17.80;99.90
18741;DHT22;9499;52.472;13.448;2023-08-08T09:28:32;17.80;1.00
18741;DHT22;9499;52.472;13.448;2023-08-08T09:30:58;17.90;99.90
18741;DHT22;9499;52.472;13.448;2023-08-08T09:33:29;18.10;1.00
18741;DHT22;9499;52.472;13.448;2023-08-08T09:35:56;18.20;99.90
18741;DHT22;9499;52.472;13.448;2023-08-08T09:38:22;18.20;99.90
18741;DHT22;9499;52.472;13.448;2023-08-08T09:40:49;18.10;99.90
18741;DHT22;9499;52.472;13.448;2023-08-08T09:43:17;18.20;99.90
18741;DHT22;9499;52.472;13.448;2023-08-08T09:45:44;18.20;99.90
18741;DHT22;9499;52.472;13.448;2023-08-08T09:48:10;18.20;99.90
18741;DHT22;9499;52.472;13.448;2023-08-08T09:50:37;18.40;99.90
18741;DHT22;9499;52.472;13.448;2023-08-08T09:53:06;18.40;1.00
18741;DHT22;9499;52.472;13.448;2023-08-08T09:55:33;18.40;99.90
18741;DHT22;9499;52.472;13.448;2023-08-08T09:58:00;18.40;99.90
18741;DHT22;9499;52.472;13.448;2023-08-08T10:00:30;18.30;99.90
18741;DHT22;9499;52.472;13.448;2023-08-08T10:02:59;18.40;99.90
18741;DHT22;9499;52.472;13.448;2023-08-08T10:05:26;18.40;99.90
18741;DHT22;9499;52.472;13.448;2023-08-08T10:07:54;18.30;99.90
18741;DHT22;9499;52.472;13.448;2023-08-08T10:10:20;18.30;99.90
18741;DHT22;9499;52.472;13.448;2023-08-08T10:12:48;18.30;1.00
18741;DHT22;9499;52.472;13.448;2023-08-08T10:15:17;18.20;68.70
18741;DHT22;9499;52.472;13.448;2023-08-08T10:17:45;18.10;99.90
18741;DHT22;9499;52.472;13.448;2023-08-08T10:20:13;18.20;99.90
18741;DHT22;9499;52.472;13.448;2023-08-08T10:22:43;18.20;99.90
18741;DHT22;9499;52.472;13.448;2023-08-08T10:25:18;18.30;1.00
18741;DHT22;9499;52.472;13.448;2023-08-08T10:27:45;18.40;99.90
18741;DHT22;9499;52.472;13.448;2023-08-08T10:30:12;18.40;99.90
18741;DHT22;9499;52.472;13.448;2023-08-08T10:32:45;18.40;1.00
18741;DHT22;9499;52.472;13.448;2023-08-08T10:35:12;18.60;99.90
18741;DHT22;9499;52.472;13.448;2023-08-08T10:37:40;18.80;95.40
18741;DHT22;9499;52.472;13.448;2023-08-08T10:40:07;18.90;1.00
18741;DHT22;9499;52.472;13.448;2023-08-08T10:42:42;19.10;99.90
18741;DHT22;9499;52.472;13.448;2023-08-08T10:45:11;19.40;73.00
18741;DHT22;9499;52.472;13.448;2023-08-08T10:47:38;19.30;1.00
18741;DHT22;9499;52.472;13.448;2023-08-08T10:50:09;19.10;1.00
18741;DHT22;9499;52.472;13.448;2023-08-08T10:52:51;19.10;1.00
18741;DHT22;9499;52.472;13.448;2023-08-08T10:55:21;19.00;99.90
18741;DHT22;9499;52.472;13.448;2023-08-08T10:57:55;19.00;99.90
18741;DHT22;9499;52.472;13.448;2023-08-08T11:00:25;18.90;1.00
18741;DHT22;9499;52.472;13.448;2023-08-08T11:02:53;19.00;99.90
18741;DHT22;9499;52.472;13.448;2023-08-08T11:05:22;19.00;1.00
18741;DHT22;9499;52.472;13.448;2023-08-08T11:07:49;19.00;1.00
18741;DHT22;9499;52.472;13.448;2023-08-08T11:10:16;19.00;99.90
18741;DHT22;9499;52.472;13.448;2023-08-08T11:12:53;19.20;99.90
18741;DHT22;9499;52.472;13.448;2023-08-08T11:15:20;19.70;97.50
18741;DHT22;9499;52.472;13.448;2023-08-08T11:17:46;20.00;1.00
18741;DHT22;9499;52.472;13.448;2023-08-08T11:20:13;20.20;1.00
18741;DHT22;9499;52.472;13.448;2023-08-08T11:22:41;20.50;1.00
18741;DHT22;9499;52.472;13.448;2023-08-08T11:25:08;20.70;1.00
18741;DHT22;9499;52.472;13.448;2023-08-08T11:27:34;20.70;99.90
18741;DHT22;9499;52.472;13.448;2023-08-08T11:30:01;20.40;99.90
18741;DHT22;9499;52.472;13.448;2023-08-08T11:32:28;20.20;1.00
18741;DHT22;9499;52.472;13.448;2023-08-08T11:34:55;19.70;1.00
18741;DHT22;9499;52.472;13.448;2023-08-08T11:37:22;18.50;1.00
18741;DHT22;9499;52.472;13.448;2023-08-08T11:39:50;17.70;1.00
18741;DHT22;9499;52.472;13.448;2023-08-08T11:42:16;17.10;1.00
18741;DHT22;9499;52.472;13.448;2023-08-08T11:44:44;16.70;1.00
18741;DHT22;9499;52.472;13.448;2023-08-08T11:47:10;16.50;1.00
18741;DHT22;9499;52.472;13.448;2023-08-08T11:49:40;16.30;1.00
18741;DHT22;9499;52.472;13.448;2023-08-08T11:52:07;16.10;1.00
18741;DHT22;9499;52.472;13.448;2023-08-08T11:54:36;16.10;1.00
18741;DHT22;9499;52.472;13.448;2023-08-08T11:57:06;16.10;1.00
18741;DHT22;9499;52.472;13.448;2023-08-08T11:59:33;16.40;1.00
18741;DHT22;9499;52.472;13.448;2023-08-08T12:02:00;16.90;1.00
18741;DHT22;9499;52.472;13.448;2023-08-08T12:04:26;17.30;1.00
18741;DHT22;9499;52.472;13.448;2023-08-08T12:07:01;17.60;99.90
18741;DHT22;9499;52.472;13.448;2023-08-08T12:09:30;17.80;99.90
18741;DHT22;9499;52.472;13.448;2023-08-08T12:11:59;18.10;99.90
18741;DHT22;9499;52.472;13.448;2023-08-08T12:14:27;18.30;1.00
18741;DHT22;9499;52.472;13.448;2023-08-08T12:16:53;18.70;36.70
18741;DHT22;9499;52.472;13.448;2023-08-08T12:19:23;18.80;23.70
18741;DHT22;9499;52.472;13.448;2023-08-08T12:21:52;19.10;1.00
18741;DHT22;9499;52.472;13.448;2023-08-08T12:24:19;19.30;99.90
18741;DHT22;9499;52.472;13.448;2023-08-08T12:26:46;19.50;84.10
18741;DHT22;9499;52.472;13.448;2023-08-08T12:29:13;19.70;1.00
18741;DHT22;9499;52.472;13.448;2023-08-08T12:31:42;19.90;1.00
18741;DHT22;9499;52.472;13.448;2023-08-08T12:34:08;20.10;1.00
18741;DHT22;9499;52.472;13.448;2023-08-08T12:36:35;20.10;1.00
18741;DHT22;9499;52.472;13.448;2023-08-08T12:39:02;19.80;1.00
18741;DHT22;9499;52.472;13.448;2023-08-08T12:41:30;19.50;1.00
18741;DHT22;9499;52.472;13.448;2023-08-08T12:43:56;18.40;99.90
18741;DHT22;9499;52.472;13.448;2023-08-08T12:46:23;17.60;1.00
18741;DHT22;9499;52.472;13.448;2023-08-08T12:48:50;17.20;1.00
18741;DHT22;9499;52.472;13.448;2023-08-08T12:51:17;17.00;1.00
18741;DHT22;9499;52.472;13.448;2023-08-08T12:53:44;17.10;1.00
18741;DHT22;9499;52.472;13.448;2023-08-08T12:56:11;17.40;1.00
18741;DHT22;9499;52.472;13.448;2023-08-08T12:58:38;17.80;1.00
18741;DHT22;9499;52.472;13.448;2023-08-08T13:01:06;18.20;1.00
18741;DHT22;9499;52.472;13.448;2023-08-08T13:03:33;18.60;99.90
18741;DHT22;9499;52.472;13.448;2023-08-08T13:06:01;18.70;99.90
18741;DHT22;9499;52.472;13.448;2023-08-08T13:08:28;18.60;1.00
18741;DHT22;9499;52.472;13.448;2023-08-08T13:10:54;18.40;1.00
18741;DHT22;9499;52.472;13.448;2023-08-08T13:13:21;18.40;50.20
18741;DHT22;9499;52.472;13.448;2023-08-08T13:15:50;18.60;99.90
18741;DHT22;9499;52.472;13.448;2023-08-08T13:18:17;18.70;1.00
18741;DHT22;9499;52.472;13.448;2023-08-08T13:20:44;18.70;1.00
18741;DHT22;9499;52.472;13.448;2023-08-08T13:23:11;18.60;1.00
18741;DHT22;9499;52.472;13.448;2023-08-08T13:25:38;18.50;99.90
18741;DHT22;9499;52.472;13.448;2023-08-08T13:28:08;18.70;1.00
18741;DHT22;9499;52.472;13.448;2023-08-08T13:30:35;19.00;99.90
18741;DHT22;9499;52.472;13.448;2023-08-08T13:33:02;19.40;99.90
18741;DHT22;9499;52.472;13.448;2023-08-08T13:35:29;19.80;99.90
18741;DHT22;9499;52.472;13.448;2023-08-08T13:37:56;20.10;59.30
18741;DHT22;9499;52.472;13.448;2023-08-08T13:40:24;20.30;34.10
18741;DHT22;9499;52.472;13.448;2023-08-08T13:42:50;20.30;1.00
18741;DHT22;9499;52.472;13.448;2023-08-08T13:45:17;20.00;99.90
18741;DHT22;9499;52.472;13.448;2023-08-08T13:47:44;19.50;99.90
18741;DHT22;9499;52.472;13.448;2023-08-08T13:50:11;18.00;1.00
18741;DHT22;9499;52.472;13.448;2023-08-08T13:52:38;16.60;1.00
18741;DHT22;9499;52.472;13.448;2023-08-08T13:55:06;15.90;1.00
18741;DHT22;9499;52.472;13.448;2023-08-08T13:57:35;15.60;3.30
18741;DHT22;9499;52.472;13.448;2023-08-08T14:00:04;15.40;20.70
18741;DHT22;9499;52.472;13.448;2023-08-08T14:02:32;15.40;10.50
18741;DHT22;9499;52.472;13.448;2023-08-08T14:04:58;15.40;1.00
18741;DHT22;9499;52.472;13.448;2023-08-08T14:07:25;15.40;1.00
18741;DHT22;9499;52.472;13.448;2023-08-08T14:09:52;15.50;9.00
18741;DHT22;9499;52.472;13.448;2023-08-08T14:12:18;15.60;1.00
18741;DHT22;9499;52.472;13.448;2023-08-08T14:14:46;15.70;1.00
18741;DHT22;9499;52.472;13.448;2023-08-08T14:17:12;16.00;20.40
18741;DHT22;9499;52.472;13.448;2023-08-08T14:19:39;16.40;1.00
18741;DHT22;9499;52.472;13.448;2023-08-08T14:22:05;16.90;1.00
18741;DHT22;9499;52.472;13.448;2023-08-08T14:24:36;17.30;1.00
18741;DHT22;9499;52.472;13.448;2023-08-08T14:27:03;17.70;1.00
18741;DHT22;9499;52.472;13.448;2023-08-08T14:29:29;18.00;99.90
18741;DHT22;9499;52.472;13.448;2023-08-08T14:31:57;18.20;1.00
18741;DHT22;9499;52.472;13.448;2023-08-08T14:34:28;18.50;1.00
18741;DHT22;9499;52.472;13.448;2023-08-08T14:36:55;18.80;50.10
18741;DHT22;9499;52.472;13.448;2023-08-08T14:39:22;18.90;1.00
18741;DHT22;9499;52.472;13.448;2023-08-08T14:41:49;19.10;1.00
18741;DHT22;9499;52.472;13.448;2023-08-08T14:44:16;19.30;1.00
18741;DHT22;9499;52.472;13.448;2023-08-08T14:46:42;19.40;99.90
18741;DHT22;9499;52.472;13.448;2023-08-08T14:49:11;19.60;1.00
18741;DHT22;9499;52.472;13.448;2023-08-08T14:51:38;19.70;99.90
18741;DHT22;9499;52.472;13.448;2023-08-08T14:54:05;19.90;99.90
18741;DHT22;9499;52.472;13.448;2023-08-08T14:56:31;20.10;99.90
18741;DHT22;9499;52.472;13.448;2023-08-08T14:58:58;20.40;1.00
18741;DHT22;9499;52.472;13.448;2023-08-08T15:01:24;20.60;1.00
18741;DHT22;9499;52.472;13.448;2023-08-08T15:03:51;20.60;99.90
18741;DHT22;9499;52.472;13.448;2023-08-08T15:06:20;20.60;1.00
18741;DHT22;9499;52.472;13.448;2023-08-08T15:08:46;20.60;31.60
18741;DHT22;9499;52.472;13.448;2023-08-08T15:11:15;20.40;70.30
18741;DHT22;9499;52.472;13.448;2023-08-08T15:13:42;20.30;99.90
18741;DHT22;9499;52.472;13.448;2023-08-08T15:16:08;20.30;99.90
18741;DHT22;9499;52.472;13.448;2023-08-08T15:18:35;20.20;1.00
18741;DHT22;9499;52.472;13.448;2023-08-08T15:21:01;20.10;99.90
18741;DHT22;9499;52.472;13.448;2023-08-08T15:23:29;20.00;99.90
18741;DHT22;9499;52.472;13.448;2023-08-08T15:25:58;19.90;1.00
18741;DHT22;9499;52.472;13.448;2023-08-08T15:28:26;19.80;31.10
18741;DHT22;9499;52.472;13.448;2023-08-08T15:30:52;19.70;99.90
18741;DHT22;9499;52.472;13.448;2023-08-08T15:33:19;19.60;99.90
18741;DHT22;9499;52.472;13.448;2023-08-08T15:35:45;19.50;1.00
18741;DHT22;9499;52.472;13.448;2023-08-08T15:38:12;19.40;99.90
18741;DHT22;9499;52.472;13.448;2023-08-08T15:40:40;19.30;99.90